Time;durP1;ratioP1;P1;durP2;ratioP2;P2;SDS_P1;SDS_P2;PMS_P1;PMS_P2;Temp;Humidity;BMP_temperature;BMP_pressure;BME280_temperature;BME280_humidity;BME280_pressure;Samples;Min_cycle;Max_cycle;Signal;HPM_P1;HPM_P2
2023/07/23 00:00:07;;;;;;;5.43;3.77;;;;;16.70;97013.00;;;;4990735;28;20207;-87
2023/07/23 00:02:56;;;;;;;7.13;4.17;;;;;16.90;97020.00;;;;4996782;28;20276;-88
2023/07/23 00:05:46;;;;;;;8.97;3.87;;;;;17.00;97016.00;;;;4990806;28;20227;-88
2023/07/23 00:08:36;;;;;;;4.30;3.53;;;;;16.50;97010.00;;;;5000870;28;20211;-90
2023/07/23 00:11:26;;;;;;;5.30;3.90;;;;;16.40;97008.00;;;;5005453;28;20687;-88
2023/07/23 00:14:15;;;;;;;4.40;3.70;;;;;16.50;97015.00;;;;4992023;28;20215;-88
2023/07/23 00:17:06;;;;;;;6.27;4.57;;;;;16.80;97010.00;;;;4982613;28;20210;-87
2023/07/23 00:19:55;;;;;;;4.87;4.40;;;;;16.90;97017.00;;;;4990122;28;20202;-86
2023/07/23 00:22:44;;;;;;;5.27;4.77;;;;;16.80;97013.00;;;;5001537;28;20217;-86
2023/07/23 00:25:35;;;;;;;3.90;3.57;;;;;16.50;97020.00;;;;4995960;28;20244;-85
2023/07/23 00:28:24;;;;;;;10.10;3.87;;;;;16.50;97024.00;;;;4998244;28;20683;-85
2023/07/23 00:31:13;;;;;;;4.73;3.37;;;;;16.60;97014.00;;;;4997461;28;20206;-85
2023/07/23 00:34:03;;;;;;;3.80;3.50;;;;;16.50;97016.00;;;;4991885;28;20627;-84
2023/07/23 00:36:52;;;;;;;6.13;4.13;;;;;16.40;97019.00;;;;4990658;28;20249;-83
2023/07/23 00:39:41;;;;;;;3.77;3.10;;;;;16.50;97007.00;;;;5003674;28;20218;-83
2023/07/23 00:42:33;;;;;;;7.27;3.83;;;;;16.30;97019.00;;;;5005198;28;20233;-85
2023/07/23 00:45:24;;;;;;;5.57;3.60;;;;;16.20;97019.00;;;;4987373;28;20227;-85
2023/07/23 00:48:13;;;;;;;9.17;3.70;;;;;16.20;97011.00;;;;4999918;28;20264;-85
2023/07/23 00:51:03;;;;;;;4.00;3.57;;;;;16.20;97004.00;;;;4987096;28;20207;-84
2023/07/23 00:53:53;;;;;;;3.70;3.30;;;;;16.20;97014.00;;;;4991603;28;20222;-86
2023/07/23 00:56:42;;;;;;;7.97;4.43;;;;;16.30;97014.00;;;;4997115;28;20605;-85
2023/07/23 00:59:33;;;;;;;4.97;3.63;;;;;16.30;97002.00;;;;4993424;28;20780;-84
2023/07/23 01:02:22;;;;;;;4.40;3.23;;;;;16.20;97009.00;;;;4996659;28;20682;-87
2023/07/23 01:05:11;;;;;;;6.07;3.77;;;;;16.20;97006.00;;;;4986616;28;20241;-86
2023/07/23 01:08:04;;;;;;;7.10;4.07;;;;;16.20;97000.00;;;;4990808;28;20199;-87
2023/07/23 01:10:53;;;;;;;4.83;3.93;;;;;16.10;97004.00;;;;5000749;28;20202;-86
2023/07/23 01:13:43;;;;;;;6.77;3.50;;;;;16.10;96992.00;;;;4995448;28;20225;-86
2023/07/23 01:16:34;;;;;;;6.47;3.33;;;;;16.30;97012.00;;;;4996670;28;20237;-86
2023/07/23 01:19:26;;;;;;;5.77;4.17;;;;;16.30;97002.00;;;;4989828;28;20207;-86
2023/07/23 01:22:16;;;;;;;5.27;3.67;;;;;16.20;96998.00;;;;4997937;28;20202;-86
2023/07/23 01:25:06;;;;;;;5.87;3.57;;;;;16.30;96999.00;;;;4997699;28;20229;-85
2023/07/23 01:27:55;;;;;;;5.60;3.43;;;;;16.40;96991.00;;;;4991064;28;20343;-85
2023/07/23 01:30:45;;;;;;;4.77;3.70;;;;;16.30;96984.00;;;;4985290;28;20206;-85
2023/07/23 01:33:35;;;;;;;6.43;3.90;;;;;16.20;96998.00;;;;4996715;28;20218;-84
2023/07/23 01:36:24;;;;;;;4.33;3.70;;;;;16.30;96991.00;;;;4998973;28;20230;-86
2023/07/23 01:39:15;;;;;;;3.73;2.97;;;;;16.00;96997.00;;;;5001397;28;20210;-86
2023/07/23 01:42:06;;;;;;;4.63;3.77;;;;;15.70;96986.00;;;;4984943;28;20203;-85
2023/07/23 01:44:55;;;;;;;11.67;3.23;;;;;16.10;96979.00;;;;4986790;28;20734;-85
2023/07/23 01:47:45;;;;;;;7.87;3.90;;;;;16.10;96977.00;;;;4987993;28;20206;-86
2023/07/23 01:50:34;;;;;;;7.20;3.67;;;;;16.00;96979.00;;;;4992822;28;20217;-86
2023/07/23 01:53:23;;;;;;;3.73;3.03;;;;;16.00;96971.00;;;;4989282;28;20227;-86
2023/07/23 01:56:14;;;;;;;9.50;4.47;;;;;16.10;96978.00;;;;4990903;28;20249;-87
2023/07/23 01:59:04;;;;;;;7.53;3.50;;;;;16.00;96978.00;;;;4987907;28;20202;-87
2023/07/23 02:01:53;;;;;;;3.87;3.30;;;;;16.10;96984.00;;;;4990050;28;20203;-87
2023/07/23 02:04:42;;;;;;;4.23;3.67;;;;;16.00;96978.00;;;;4988804;28;20571;-86
2023/07/23 02:07:31;;;;;;;4.70;3.67;;;;;16.00;96975.00;;;;4990373;28;20587;-86
2023/07/23 02:10:22;;;;;;;6.27;3.53;;;;;15.90;96971.00;;;;4993686;28;20202;-86
2023/07/23 02:13:12;;;;;;;5.40;3.00;;;;;15.90;96971.00;;;;4989388;28;20228;-86
2023/07/23 02:16:02;;;;;;;3.00;2.80;;;;;15.90;96972.00;;;;4984132;28;20299;-86
2023/07/23 02:18:52;;;;;;;2.97;2.67;;;;;15.50;96965.00;;;;4987104;28;20218;-86
2023/07/23 02:21:41;;;;;;;4.07;3.07;;;;;15.60;96979.00;;;;4988430;28;20583;-85
2023/07/23 02:24:30;;;;;;;4.87;3.00;;;;;15.80;96968.00;;;;4996762;28;20599;-85
2023/07/23 02:27:19;;;;;;;4.37;2.97;;;;;15.80;96975.00;;;;4986710;28;20202;-85
2023/07/23 02:30:11;;;;;;;4.53;3.60;;;;;15.90;96975.00;;;;4988550;28;20210;-86
2023/07/23 02:33:00;;;;;;;4.50;3.37;;;;;15.70;96989.00;;;;4995972;28;20229;-87
2023/07/23 02:35:50;;;;;;;4.63;3.90;;;;;15.70;96998.00;;;;4990867;28;20257;-86
2023/07/23 02:38:39;;;;;;;3.87;2.97;;;;;15.80;96996.00;;;;4993498;28;20206;-86
2023/07/23 02:41:28;;;;;;;6.77;4.23;;;;;15.90;96992.00;;;;4991643;28;20698;-87
2023/07/23 02:44:17;;;;;;;6.37;4.10;;;;;15.90;97002.00;;;;4988320;28;20194;-87
2023/07/23 02:47:08;;;;;;;5.87;3.63;;;;;15.80;97006.00;;;;4993398;28;20214;-86
2023/07/23 02:49:57;;;;;;;5.80;3.70;;;;;15.80;97008.00;;;;4995627;28;20224;-86
2023/07/23 02:52:47;;;;;;;4.17;2.80;;;;;15.60;97001.00;;;;4991793;28;20207;-85
2023/07/23 02:55:36;;;;;;;4.47;3.60;;;;;15.50;97004.00;;;;4994165;28;20233;-86
2023/07/23 02:58:25;;;;;;;8.30;3.47;;;;;15.70;97009.00;;;;4991584;28;20210;-84
2023/07/23 03:01:14;;;;;;;3.47;3.10;;;;;15.70;97004.00;;;;4989447;28;20221;-86
2023/07/23 03:04:05;;;;;;;5.07;4.00;;;;;15.70;96989.00;;;;4989081;28;20207;-85
2023/07/23 03:06:54;;;;;;;4.63;3.47;;;;;15.50;96996.00;;;;4991646;28;20218;-85
2023/07/23 03:09:43;;;;;;;5.57;3.57;;;;;15.60;96999.00;;;;4999479;28;20851;-85
2023/07/23 03:12:33;;;;;;;4.27;3.50;;;;;15.50;96990.00;;;;4999366;28;20573;-86
2023/07/23 03:15:23;;;;;;;3.90;3.27;;;;;15.60;96997.00;;;;4988226;28;20225;-86
2023/07/23 03:18:12;;;;;;;9.20;3.77;;;;;15.20;96997.00;;;;4993346;28;20703;-86
2023/07/23 03:21:03;;;;;;;3.67;3.27;;;;;15.40;96997.00;;;;4994293;28;20207;-86
2023/07/23 03:23:52;;;;;;;3.80;3.20;;;;;15.40;96999.00;;;;4995667;28;20203;-85
2023/07/23 03:26:41;;;;;;;4.07;3.10;;;;;15.50;96989.00;;;;5009223;28;20229;-86
2023/07/23 03:29:30;;;;;;;10.93;3.43;;;;;15.20;96989.00;;;;5000147;28;20232;-86
2023/07/23 03:32:19;;;;;;;5.00;2.77;;;;;15.20;96987.00;;;;4992125;28;20694;-86
2023/07/23 03:35:08;;;;;;;4.50;3.43;;;;;15.40;96992.00;;;;4989791;28;20606;-86
2023/07/23 03:37:59;;;;;;;3.47;2.73;;;;;15.50;96998.00;;;;4997872;28;20214;-85
2023/07/23 03:40:48;;;;;;;5.33;3.50;;;;;15.30;96991.00;;;;4993745;28;20199;-85
2023/07/23 03:43:37;;;;;;;5.83;3.10;;;;;15.20;96981.00;;;;4991188;28;20203;-85
2023/07/23 03:46:26;;;;;;;12.03;4.40;;;;;15.40;96980.00;;;;4995096;28;20231;-86
2023/07/23 03:49:15;;;;;;;3.77;3.30;;;;;15.60;96980.00;;;;4991057;28;20257;-85
2023/07/23 03:52:05;;;;;;;5.73;3.57;;;;;15.60;96981.00;;;;4988329;28;20203;-86
2023/07/23 03:54:56;;;;;;;4.33;3.43;;;;;15.20;96975.00;;;;4983556;28;20237;-86
2023/07/23 03:57:45;;;;;;;4.83;3.20;;;;;15.30;96972.00;;;;4992372;28;20199;-85
2023/07/23 04:00:35;;;;;;;4.90;3.07;;;;;15.10;96976.00;;;;4990182;28;20660;-86
2023/07/23 04:03:25;;;;;;;4.07;3.60;;;;;15.50;96968.00;;;;4999151;28;20213;-85
2023/07/23 04:06:14;;;;;;;3.13;2.57;;;;;15.40;96978.00;;;;4994126;28;20691;-85
2023/07/23 04:09:03;;;;;;;6.83;4.13;;;;;15.60;96972.00;;;;4990524;28;20207;-85
2023/07/23 04:11:53;;;;;;;7.10;3.63;;;;;15.50;96978.00;;;;5003091;28;20206;-86
2023/07/23 04:14:43;;;;;;;4.63;3.60;;;;;15.70;96972.00;;;;4990953;28;20253;-85
2023/07/23 04:17:33;;;;;;;4.80;3.50;;;;;15.50;96974.00;;;;4990427;28;20285;-85
2023/07/23 04:20:22;;;;;;;2.70;2.50;;;;;15.60;96976.00;;;;4991044;28;20210;-85
2023/07/23 04:23:11;;;;;;;4.83;3.67;;;;;15.90;96976.00;;;;4987091;28;20218;-86
2023/07/23 04:26:00;;;;;;;6.30;3.23;;;;;15.80;96976.00;;;;4990409;28;20219;-86
2023/07/23 04:28:51;;;;;;;4.20;3.40;;;;;16.00;96975.00;;;;4997513;28;20566;-86
2023/07/23 04:31:40;;;;;;;3.77;3.03;;;;;16.10;96971.00;;;;4989597;28;20210;-86
2023/07/23 04:34:29;;;;;;;5.80;4.03;;;;;16.30;96980.00;;;;4992324;28;20258;-86
2023/07/23 04:37:18;;;;;;;4.40;3.60;;;;;16.40;96979.00;;;;4992841;28;20202;-85
2023/07/23 04:40:09;;;;;;;5.83;3.97;;;;;16.60;96979.00;;;;4996812;28;20223;-86
2023/07/23 04:42:58;;;;;;;10.97;3.90;;;;;16.70;96993.00;;;;4987371;28;20202;-84
2023/07/23 04:45:48;;;;;;;3.37;2.77;;;;;16.70;96997.00;;;;4987007;28;20225;-85
2023/07/23 04:48:39;;;;;;;3.67;3.37;;;;;16.70;96996.00;;;;4997346;28;20217;-85
2023/07/23 04:51:28;;;;;;;4.53;3.57;;;;;16.80;96999.00;;;;4992014;28;20216;-85
2023/07/23 04:54:17;;;;;;;3.10;2.80;;;;;16.80;96999.00;;;;4988346;28;20226;-86
2023/07/23 04:57:06;;;;;;;4.77;3.40;;;;;16.60;96993.00;;;;4993676;28;20233;-86
2023/07/23 04:59:56;;;;;;;3.30;3.00;;;;;16.90;96993.00;;;;4983513;28;20229;-86
2023/07/23 05:02:46;;;;;;;3.93;3.43;;;;;17.00;96989.00;;;;5000311;28;20213;-86
2023/07/23 05:05:38;;;;;;;4.13;3.30;;;;;16.70;96996.00;;;;4988731;28;20222;-85
2023/07/23 05:08:27;;;;;;;4.67;3.60;;;;;16.90;96999.00;;;;4990310;28;20213;-86
2023/07/23 05:11:17;;;;;;;4.27;3.10;;;;;16.80;97001.00;;;;4993911;28;20206;-86
2023/07/23 05:14:06;;;;;;;3.90;3.47;;;;;17.20;96999.00;;;;4988482;28;20221;-87
2023/07/23 05:16:55;;;;;;;6.10;3.50;;;;;17.40;96993.00;;;;4994432;28;20230;-86
2023/07/23 05:19:45;;;;;;;4.80;3.43;;;;;17.50;96998.00;;;;4992876;28;20210;-85
2023/07/23 05:22:37;;;;;;;3.63;3.20;;;;;17.50;96990.00;;;;4989581;28;20198;-85
2023/07/23 05:25:26;;;;;;;3.83;3.10;;;;;17.50;96992.00;;;;4999144;28;21133;-86
2023/07/23 05:28:16;;;;;;;5.00;3.67;;;;;17.60;96990.00;;;;4994459;28;20218;-85
2023/07/23 05:31:05;;;;;;;6.03;3.53;;;;;17.40;96986.00;;;;4985035;28;21026;-87
2023/07/23 05:33:54;;;;;;;5.07;2.80;;;;;17.50;96981.00;;;;4983498;28;20578;-85
2023/07/23 05:36:45;;;;;;;4.10;3.23;;;;;17.70;96991.00;;;;4990319;28;20232;-85
2023/07/23 05:39:34;;;;;;;3.30;3.00;;;;;18.00;96982.00;;;;4987677;28;20676;-86
2023/07/23 05:42:23;;;;;;;4.90;3.60;;;;;18.10;96990.00;;;;4987512;28;20206;-85
2023/07/23 05:45:12;;;;;;;4.50;3.10;;;;;18.20;96999.00;;;;4994276;28;20229;-86
2023/07/23 05:48:01;;;;;;;7.20;3.00;;;;;18.60;96996.00;;;;4989020;28;20217;-86
2023/07/23 05:50:50;;;;;;;5.30;3.50;;;;;18.60;97004.00;;;;4988457;28;20206;-86
2023/07/23 05:53:41;;;;;;;3.10;2.63;;;;;18.50;96997.00;;;;4989351;28;20671;-85
2023/07/23 05:56:31;;;;;;;4.63;3.30;;;;;18.50;96993.00;;;;4997218;28;20257;-88
2023/07/23 05:59:20;;;;;;;4.40;2.77;;;;;18.60;96989.00;;;;4989193;28;20210;-86
2023/07/23 06:02:10;;;;;;;4.63;3.13;;;;;18.90;96999.00;;;;4991488;28;20217;-85
2023/07/23 06:04:59;;;;;;;2.97;2.67;;;;;18.80;96993.00;;;;4987766;28;20230;-86
2023/07/23 06:07:48;;;;;;;6.73;5.37;;;;;19.00;96990.00;;;;4995391;28;20212;-86
2023/07/23 06:10:39;;;;;;;6.63;3.57;;;;;19.10;96999.00;;;;4989506;28;20207;-86
2023/07/23 06:13:28;;;;;;;4.30;3.00;;;;;19.00;96990.00;;;;4985239;28;20210;-86
2023/07/23 06:16:17;;;;;;;4.60;3.30;;;;;19.20;96992.00;;;;4986244;28;20723;-85
2023/07/23 06:19:06;;;;;;;4.13;3.43;;;;;19.30;96986.00;;;;4988134;28;20214;-86
2023/07/23 06:21:55;;;;;;;4.23;3.53;;;;;19.40;96981.00;;;;4988165;28;20206;-85
2023/07/23 06:24:44;;;;;;;4.80;3.47;;;;;19.60;96981.00;;;;4979704;28;20219;-85
2023/07/23 06:27:35;;;;;;;4.63;4.00;;;;;19.80;96982.00;;;;4987334;28;20209;-85
2023/07/23 06:30:24;;;;;;;4.83;3.80;;;;;20.00;96979.00;;;;4986244;28;20587;-86
2023/07/23 06:33:13;;;;;;;3.20;2.90;;;;;20.00;96978.00;;;;4986731;28;20202;-86
2023/07/23 06:36:02;;;;;;;4.67;3.57;;;;;20.00;96980.00;;;;4988463;28;20233;-86
2023/07/23 06:38:51;;;;;;;4.43;3.73;;;;;20.00;96981.00;;;;4982839;28;20222;-85
2023/07/23 06:41:41;;;;;;;5.10;3.53;;;;;20.20;96978.00;;;;4985096;28;20242;-86
2023/07/23 06:44:31;;;;;;;4.33;3.67;;;;;20.40;96977.00;;;;4986084;28;20222;-86
2023/07/23 06:47:20;;;;;;;6.10;3.73;;;;;20.50;96980.00;;;;4987354;28;20217;-85
2023/07/23 06:50:10;;;;;;;7.93;3.73;;;;;20.70;96976.00;;;;4981176;28;20595;-85
2023/07/23 06:52:59;;;;;;;5.60;3.60;;;;;21.00;96979.00;;;;4983488;28;20198;-87
2023/07/23 06:56:00;;;;;;;5.70;4.23;;;;;21.00;96976.00;;;;4988535;28;20241;-85
2023/07/23 06:58:49;;;;;;;3.90;3.33;;;;;21.10;96984.00;;;;4990424;28;20207;-86
2023/07/23 07:01:39;;;;;;;4.57;3.17;;;;;21.40;96978.00;;;;4991292;28;20209;-86
2023/07/23 07:04:29;;;;;;;3.57;3.23;;;;;21.50;96983.00;;;;4991414;28;20202;-87
2023/07/23 07:07:18;;;;;;;4.97;3.70;;;;;21.50;96978.00;;;;4990451;28;20203;-84
2023/07/23 07:10:08;;;;;;;4.47;3.33;;;;;21.70;96980.00;;;;4988619;28;20221;-86
2023/07/23 07:12:57;;;;;;;5.40;3.97;;;;;21.90;96977.00;;;;4992718;28;20211;-86
2023/07/23 07:15:46;;;;;;;3.67;3.17;;;;;22.40;96986.00;;;;4990472;28;20226;-86
2023/07/23 07:18:37;;;;;;;5.73;3.90;;;;;23.00;96981.00;;;;4991415;28;20243;-84
2023/07/23 07:21:26;;;;;;;5.93;4.13;;;;;23.30;96985.00;;;;4987788;28;20770;-84
2023/07/23 07:24:15;;;;;;;3.97;2.93;;;;;23.40;96982.00;;;;4991335;28;20218;-86
2023/07/23 07:27:09;;;;;;;4.90;3.83;;;;;23.40;96981.00;;;;4990410;28;20191;-85
2023/07/23 07:29:58;;;;;;;4.77;3.07;;;;;23.50;96983.00;;;;4988952;28;20329;-86
2023/07/23 07:32:48;;;;;;;3.60;3.10;;;;;23.70;96976.00;;;;4997376;28;20222;-86
2023/07/23 07:35:39;;;;;;;4.17;3.30;;;;;23.90;96987.00;;;;4989726;28;20226;-86
2023/07/23 07:38:29;;;;;;;4.00;3.60;;;;;24.00;96973.00;;;;4989828;28;20208;-86
2023/07/23 07:41:18;;;;;;;5.83;3.70;;;;;24.20;96976.00;;;;4992169;28;20676;-86
2023/07/23 07:44:07;;;;;;;4.80;3.60;;;;;24.30;96975.00;;;;4992379;28;20711;-88
2023/07/23 07:46:57;;;;;;;3.20;2.57;;;;;24.50;96978.00;;;;4990199;28;20324;-88
2023/07/23 07:49:46;;;;;;;3.70;3.23;;;;;24.50;96970.00;;;;4991310;28;20589;-87
2023/07/23 07:52:36;;;;;;;3.70;3.30;;;;;24.70;96970.00;;;;4991151;28;20210;-88
2023/07/23 07:55:26;;;;;;;3.40;3.10;;;;;24.80;96964.00;;;;4988466;28;20223;-88
2023/07/23 07:58:16;;;;;;;3.90;3.10;;;;;24.90;96972.00;;;;4991335;28;20210;-88
2023/07/23 08:01:06;;;;;;;4.17;3.00;;;;;25.20;96968.00;;;;4984518;28;20206;-88
2023/07/23 08:03:56;;;;;;;7.00;3.67;;;;;25.30;96969.00;;;;4987954;28;20203;-88
2023/07/23 08:06:45;;;;;;;4.17;3.37;;;;;25.20;96971.00;;;;4988675;28;20250;-89
2023/07/23 08:09:36;;;;;;;6.90;2.97;;;;;25.50;96963.00;;;;4987630;28;20229;-89
2023/07/23 08:12:27;;;;;;;3.83;3.43;;;;;25.50;96962.00;;;;4987503;28;20194;-88
2023/07/23 08:15:17;;;;;;;3.77;3.37;;;;;25.50;96960.00;;;;4990623;28;20226;-88
2023/07/23 08:18:06;;;;;;;3.93;3.10;;;;;25.70;96967.00;;;;4991643;28;20203;-88
2023/07/23 08:20:57;;;;;;;3.87;3.30;;;;;25.80;96968.00;;;;4989050;28;20209;-88
2023/07/23 08:23:47;;;;;;;3.83;3.17;;;;;25.60;96957.00;;;;4988723;28;20286;-88
2023/07/23 08:26:40;;;;;;;6.50;3.47;;;;;25.70;96953.00;;;;4988892;28;20219;-87
2023/07/23 08:29:30;;;;;;;3.97;3.03;;;;;26.20;96949.00;;;;4988109;28;20218;-88
2023/07/23 08:32:20;;;;;;;4.20;3.00;;;;;26.30;96956.00;;;;4987007;28;20671;-89
2023/07/23 08:35:11;;;;;;;5.17;3.70;;;;;26.50;96957.00;;;;4992215;28;20233;-87
2023/07/23 08:38:01;;;;;;;3.77;3.10;;;;;26.70;96951.00;;;;4993818;28;20294;-89
2023/07/23 08:41:01;;;;;;;5.60;3.20;;;;;26.90;96947.00;;;;4991308;28;20195;-88
2023/07/23 08:44:26;;;;;;;4.63;4.00;;;;;27.20;96943.00;;;;4989592;28;20207;-88
2023/07/23 08:47:18;;;;;;;2.77;2.57;;;;;27.30;96939.00;;;;4987948;28;20223;-88
2023/07/23 08:50:08;;;;;;;4.33;2.43;;;;;27.50;96940.00;;;;4989272;28;20678;-88
2023/07/23 08:52:58;;;;;;;3.67;2.57;;;;;27.50;96946.00;;;;4990751;28;20222;-88
2023/07/23 08:55:48;;;;;;;3.57;2.70;;;;;27.70;96937.00;;;;4991288;28;20232;-88
2023/07/23 08:58:38;;;;;;;4.00;2.43;;;;;27.90;96935.00;;;;4990685;28;20205;-88
2023/07/23 09:01:33;;;;;;;3.70;2.73;;;;;27.80;96933.00;;;;4992448;28;20218;-88
2023/07/23 09:04:22;;;;;;;5.13;2.73;;;;;27.40;96927.00;;;;4989401;28;20224;-88
2023/07/23 09:07:12;;;;;;;2.70;2.20;;;;;28.00;96934.00;;;;4989717;28;20767;-89
2023/07/23 09:10:02;;;;;;;3.70;2.70;;;;;28.30;96927.00;;;;4987397;28;20669;-87
2023/07/23 09:12:56;;;;;;;3.17;2.43;;;;;28.00;96935.00;;;;4986720;28;20212;-88
2023/07/23 09:15:55;;;;;;;3.53;3.00;;;;;28.40;96935.00;;;;4995776;28;20298;-89
2023/07/23 09:18:51;;;;;;;5.40;2.40;;;;;28.40;96932.00;;;;4992539;28;20224;-89
2023/07/23 09:21:44;;;;;;;3.30;3.00;;;;;28.80;96933.00;;;;4990493;28;20216;-89
2023/07/23 09:24:41;;;;;;;4.23;2.47;;;;;29.00;96926.00;;;;5000804;28;20215;-90
2023/07/23 09:27:41;;;;;;;3.73;2.87;;;;;28.60;96932.00;;;;4989063;28;20695;-89
2023/07/23 09:30:35;;;;;;;5.13;3.13;;;;;28.40;96922.00;;;;4994567;28;20270;-88
2023/07/23 09:33:37;;;;;;;2.93;2.23;;;;;28.70;96909.00;;;;4994044;28;20246;-88
2023/07/23 09:36:34;;;;;;;3.07;2.43;;;;;29.40;96924.00;;;;4994758;28;20230;-88
2023/07/23 09:39:27;;;;;;;5.20;2.63;;;;;29.20;96915.00;;;;4992544;28;20597;-89
2023/07/23 09:42:17;;;;;;;3.17;2.80;;;;;28.80;96913.00;;;;4990268;28;20210;-88
2023/07/23 09:45:10;;;;;;;5.20;2.63;;;;;29.10;96903.00;;;;4989020;28;20221;-88
2023/07/23 09:48:02;;;;;;;3.50;2.83;;;;;28.40;96915.00;;;;4998954;28;20209;-89
2023/07/23 09:51:02;;;;;;;3.90;2.93;;;;;29.20;96899.00;;;;4993919;28;20206;-88
2023/07/23 09:54:07;;;;;;;4.43;2.50;;;;;29.50;96896.00;;;;4985618;28;20209;-88
2023/07/23 09:57:04;;;;;;;3.50;2.87;;;;;29.80;96899.00;;;;4989071;28;20262;-88
2023/07/23 09:59:53;;;;;;;3.17;2.50;;;;;29.60;96892.00;;;;4984140;28;20259;-88
2023/07/23 10:02:44;;;;;;;2.90;2.40;;;;;29.90;96902.00;;;;4988887;28;20203;-89
2023/07/23 10:05:33;;;;;;;4.07;2.87;;;;;29.50;96889.00;;;;4989935;28;20261;-88
2023/07/23 10:08:24;;;;;;;2.53;2.20;;;;;30.30;96891.00;;;;4990840;28;20257;-89
2023/07/23 10:11:16;;;;;;;2.57;2.37;;;;;30.40;96887.00;;;;4985506;28;20221;-89
2023/07/23 10:14:05;;;;;;;4.80;2.97;;;;;30.10;96891.00;;;;4988487;28;20206;-88
2023/07/23 10:16:54;;;;;;;4.43;3.00;;;;;30.30;96884.00;;;;4989184;28;20239;-87
2023/07/23 10:20:10;;;;;;;5.33;2.83;;;;;30.70;96884.00;;;;4985514;28;20213;-88
2023/07/23 10:23:08;;;;;;;2.93;2.63;;;;;30.50;96889.00;;;;4985449;28;20213;-88
2023/07/23 10:26:20;;;;;;;3.83;3.37;;;;;29.80;96880.00;;;;4987720;28;20232;-87
2023/07/23 10:29:18;;;;;;;4.90;3.40;;;;;30.90;96886.00;;;;4990407;28;20277;-89
2023/07/23 10:32:26;;;;;;;4.77;3.03;;;;;30.00;96883.00;;;;4992587;28;20203;-88
2023/07/23 10:36:06;;;;;;;4.70;3.13;;;;;29.50;96871.00;;;;4998121;28;20289;-88
2023/07/23 10:39:29;;;;;;;3.73;2.63;;;;;30.40;96870.00;;;;4988977;28;20210;-89
2023/07/23 10:42:45;;;;;;;2.90;2.60;;;;;31.10;96874.00;;;;4990661;28;20211;-89
2023/07/23 10:45:39;;;;;;;6.00;2.70;;;;;30.10;96863.00;;;;4993747;28;20718;-87
2023/07/23 10:48:39;;;;;;;3.17;2.80;;;;;31.30;96870.00;;;;4999922;28;20283;-89
2023/07/23 10:51:28;;;;;;;3.43;2.93;;;;;31.60;96871.00;;;;4989886;28;20207;-89
2023/07/23 10:54:18;;;;;;;3.40;2.57;;;;;30.00;96873.00;;;;4994009;28;20214;-87
2023/07/23 10:57:08;;;;;;;3.47;3.17;;;;;31.30;96870.00;;;;4995763;28;20225;-87
2023/07/23 11:00:00;;;;;;;3.43;3.13;;;;;30.60;96864.00;;;;4990680;28;20327;-88
2023/07/23 11:02:50;;;;;;;4.60;3.10;;;;;30.00;96854.00;;;;4997538;28;20253;-88
2023/07/23 11:05:42;;;;;;;4.73;2.83;;;;;30.40;96853.00;;;;5003817;28;22365;-87
2023/07/23 11:08:31;;;;;;;4.70;2.97;;;;;31.10;96850.00;;;;4997565;28;20204;-89
2023/07/23 11:11:28;;;;;;;7.87;4.07;;;;;31.30;96852.00;;;;4995369;28;20225;-87
2023/07/23 11:14:19;;;;;;;3.80;3.50;;;;;30.50;96836.00;;;;4992657;28;20608;-88
2023/07/23 11:17:10;;;;;;;3.53;2.93;;;;;31.60;96838.00;;;;4986689;28;20228;-88
2023/07/23 11:20:00;;;;;;;3.83;3.40;;;;;31.60;96833.00;;;;4993491;28;20201;-88
2023/07/23 11:22:50;;;;;;;4.20;2.97;;;;;30.60;96833.00;;;;4995703;28;20209;-88
2023/07/23 11:25:40;;;;;;;4.67;3.37;;;;;31.80;96826.00;;;;4995292;28;20237;-89
2023/07/23 11:28:32;;;;;;;5.13;3.40;;;;;30.20;96819.00;;;;4996523;28;20213;-89
2023/07/23 11:31:24;;;;;;;3.80;3.03;;;;;30.10;96819.00;;;;4990884;28;20866;-88
2023/07/23 11:34:14;;;;;;;4.27;3.10;;;;;30.20;96815.00;;;;4997027;28;20588;-90
2023/07/23 11:37:04;;;;;;;4.00;3.53;;;;;31.10;96816.00;;;;4989732;28;20234;-88
2023/07/23 11:39:54;;;;;;;3.00;2.70;;;;;31.00;96820.00;;;;4990914;28;20212;-88
2023/07/23 11:42:43;;;;;;;4.70;3.43;;;;;30.30;96811.00;;;;4989311;28;20212;-88
2023/07/23 11:45:36;;;;;;;5.67;3.10;;;;;31.50;96809.00;;;;4999153;28;20235;-89
2023/07/23 11:48:26;;;;;;;4.43;3.10;;;;;31.70;96812.00;;;;4990770;28;20202;-89
2023/07/23 11:51:16;;;;;;;3.05;2.75;;;;;30.80;96810.00;;;;4986230;28;20743;-88
2023/07/23 11:54:08;;;;;;;3.67;2.95;;;;;32.40;96812.00;;;;4991522;28;20213;-88
2023/07/23 11:56:58;;;;;;;4.93;3.17;;;;;32.00;96803.00;;;;4988252;28;20210;-88
2023/07/23 11:59:47;;;;;;;3.50;3.17;;;;;32.90;96798.00;;;;4990862;28;20229;-87
2023/07/23 12:02:36;;;;;;;5.13;3.25;;;;;31.20;96791.00;;;;4989166;28;20212;-89
2023/07/23 12:05:25;;;;;;;3.83;3.17;;;;;31.20;96791.00;;;;4990260;28;20239;-90
2023/07/23 12:08:19;;;;;;;6.32;3.65;;;;;32.00;96794.00;;;;4991385;28;20235;-90
2023/07/23 12:11:12;;;;;;;5.35;3.40;;;;;33.50;96796.00;;;;4987663;28;20208;-89
2023/07/23 12:14:03;;;;;;;5.07;3.17;;;30.10;91.80;33.70;96795.00;;;;4991924;28;20221;-88
2023/07/23 12:16:58;;;;;;;5.95;3.47;;;30.10;92.00;33.00;96789.00;;;;4989108;28;20222;-90
2023/07/23 12:19:47;;;;;;;4.70;3.65;;;30.40;88.90;32.80;96776.00;;;;4990193;28;20209;-90
2023/07/23 12:22:49;;;;;;;4.10;3.42;;;30.40;90.30;34.50;96781.00;;;;4989194;28;20448;-90
2023/07/23 12:25:40;;;;;;;4.90;3.08;;;30.70;90.60;34.40;96777.00;;;;4989218;28;20237;-90
2023/07/23 12:28:29;;;;;;;3.20;2.90;;;31.00;90.50;34.80;96773.00;;;;4991810;28;20229;-89
2023/07/23 12:31:18;;;;;;;6.15;4.25;;;31.30;90.10;35.50;96778.00;;;;4991827;28;20214;-89
2023/07/23 12:34:07;;;;;;;4.32;3.45;;;31.70;90.40;35.80;96764.00;;;;4996133;28;20203;-89
2023/07/23 12:36:56;;;;;;;6.35;3.58;;;32.00;90.00;36.50;96759.00;;;;4988459;28;20222;-89
2023/07/23 12:39:47;;;;;;;3.50;3.20;;;32.40;90.00;36.70;96766.00;;;;4999638;28;20613;-89
2023/07/23 12:42:56;;;;;;;4.65;3.17;;;32.90;88.20;35.80;96759.00;;;;4996967;28;20210;-89
2023/07/23 12:45:51;;;;;;;3.42;2.90;;;33.00;81.00;36.30;96745.00;;;;4988031;28;20229;-89
2023/07/23 12:48:40;;;;;;;4.25;3.30;;;33.10;83.80;37.00;96741.00;;;;4986911;28;20249;-91
2023/07/23 12:51:29;;;;;;;4.38;3.78;;;33.20;85.20;37.10;96741.00;;;;4987409;28;20206;-91
2023/07/23 12:54:18;;;;;;;5.22;3.67;;;33.50;84.10;37.30;96748.00;;;;4986058;28;20273;-90
2023/07/23 12:57:07;;;;;;;3.67;3.30;;;33.70;82.60;36.70;96753.00;;;;4988333;28;20213;-90
2023/07/23 12:59:59;;;;;;;4.95;3.53;;;33.90;81.80;35.50;96768.00;;;;4988693;28;20582;-91
2023/07/23 13:02:48;;;;;;;3.95;2.90;;;33.70;78.70;34.00;96787.00;;;;4987806;28;20275;-88
2023/07/23 13:05:37;;;;;;;4.63;3.53;;;;;32.00;96734.00;;;;4987217;28;20254;-89
2023/07/23 13:08:26;;;;;;;5.03;3.38;;;;;34.70;96744.00;;;;4986326;28;20218;-91
2023/07/23 13:11:15;;;;;;;4.45;3.60;;;;;35.60;96740.00;;;;4988766;28;20203;-90
2023/07/23 13:14:05;;;;;;;3.05;2.80;;;;;36.40;96733.00;;;;4986701;28;20611;-91
2023/07/23 13:16:55;;;;;;;3.90;3.45;;;;;36.30;96730.00;;;;4988067;28;20226;-91
2023/07/23 13:19:45;;;;;;;3.70;3.25;;;;;36.90;96729.00;;;;4988278;28;20194;-90
2023/07/23 13:22:42;;;;;;;4.75;3.75;;;;;36.30;96722.00;;;;5060694;27;20975;-74
2023/07/23 13:25:31;;;;;;;3.72;3.33;;;;;36.90;96722.00;;;;5076684;28;20195;-75
2023/07/23 13:28:21;;;;;;;3.97;3.55;;;;;34.90;96722.00;;;;5086697;28;20988;-74
2023/07/23 13:31:10;;;;;;;3.90;3.47;;;;;35.70;96716.00;;;;5087450;28;20202;-75
2023/07/23 13:33:59;;;;;;;3.90;3.45;;;;;36.40;96715.00;;;;5085534;28;20223;-75
2023/07/23 13:36:48;;;;;;;3.85;3.42;;;;;34.10;96755.00;;;;5090265;28;20190;-73
2023/07/23 13:39:39;;;;;;;3.53;2.92;;;;;34.40;96711.00;;;;5091134;28;20230;-76
2023/07/23 13:42:28;;;;;;;3.70;3.40;;;;;32.70;96705.00;;;;5068449;28;20219;-72
2023/07/23 13:45:17;;;;;;;3.80;3.45;;;;;32.20;96697.00;;;;5083316;28;20199;-74
2023/07/23 13:48:07;;;;;;;3.83;3.42;;;;;32.80;96703.00;;;;5079791;28;20192;-74
2023/07/23 13:50:57;;;;;;;3.63;3.03;;;;;34.00;96703.00;;;;5077887;28;20196;-75
2023/07/23 13:53:48;;;;;;;4.18;3.65;;;;;33.20;96710.00;;;;5081088;28;20200;-74
2023/07/23 13:56:38;;;;;;;4.03;3.50;;;;;33.50;96695.00;;;;5084042;28;20218;-73
2023/07/23 13:59:31;;;;;;;7.95;3.65;;;;;34.30;96700.00;;;;5075477;28;20242;-74
2023/07/23 14:02:20;;;;;;;4.07;3.55;;;;;34.90;96689.00;;;;5078423;28;20223;-74
2023/07/23 14:05:09;;;;;;;3.95;3.55;;;;;34.60;96684.00;;;;5081299;28;20199;-75
2023/07/23 14:07:59;;;;;;;4.13;3.72;;;;;34.10;96681.00;;;;5080622;28;20211;-75